sensor_id;sensor_type;location;lat;lon;timestamp;P1;durP1;ratioP1;P2;durP2;ratioP2
10216;SDS011;5152;59.674;16.838;2023-07-20T00:02:02;3.37;;;1.00;;
10216;SDS011;5152;59.674;16.838;2023-07-20T00:04:30;4.63;;;1.50;;
10216;SDS011;5152;59.674;16.838;2023-07-20T00:06:57;4.23;;;1.30;;
10216;SDS011;5152;59.674;16.838;2023-07-20T00:09:24;4.97;;;0.93;;
10216;SDS011;5152;59.674;16.838;2023-07-20T00:11:52;2.17;;;0.80;;
10216;SDS011;5152;59.674;16.838;2023-07-20T00:14:20;2.73;;;1.30;;
10216;SDS011;5152;59.674;16.838;2023-07-20T00:16:47;3.50;;;1.17;;
10216;SDS011;5152;59.674;16.838;2023-07-20T00:19:21;2.20;;;0.83;;
10216;SDS011;5152;59.674;16.838;2023-07-20T00:21:48;2.80;;;0.97;;
10216;SDS011;5152;59.674;16.838;2023-07-20T00:24:15;2.67;;;1.00;;
10216;SDS011;5152;59.674;16.838;2023-07-20T00:26:42;1.50;;;0.97;;
10216;SDS011;5152;59.674;16.838;2023-07-20T00:29:08;3.93;;;1.10;;
10216;SDS011;5152;59.674;16.838;2023-07-20T00:31:37;4.03;;;1.40;;
10216;SDS011;5152;59.674;16.838;2023-07-20T00:34:04;4.60;;;1.10;;
10216;SDS011;5152;59.674;16.838;2023-07-20T00:36:31;1.73;;;0.87;;
10216;SDS011;5152;59.674;16.838;2023-07-20T00:38:57;5.33;;;1.50;;
10216;SDS011;5152;59.674;16.838;2023-07-20T00:41:24;2.50;;;1.20;;
10216;SDS011;5152;59.674;16.838;2023-07-20T00:43:54;2.80;;;0.90;;
10216;SDS011;5152;59.674;16.838;2023-07-20T00:46:22;3.83;;;1.30;;
10216;SDS011;5152;59.674;16.838;2023-07-20T00:48:50;2.50;;;1.00;;
10216;SDS011;5152;59.674;16.838;2023-07-20T00:51:18;6.20;;;1.20;;
10216;SDS011;5152;59.674;16.838;2023-07-20T00:53:45;5.27;;;0.93;;
10216;SDS011;5152;59.674;16.838;2023-07-20T00:56:12;3.97;;;1.20;;
10216;SDS011;5152;59.674;16.838;2023-07-20T00:58:39;2.50;;;1.07;;
10216;SDS011;5152;59.674;16.838;2023-07-20T01:07:52;4.43;;;0.93;;
10216;SDS011;5152;59.674;16.838;2023-07-20T01:10:23;2.73;;;1.00;;
10216;SDS011;5152;59.674;16.838;2023-07-20T01:12:53;2.50;;;1.10;;
10216;SDS011;5152;59.674;16.838;2023-07-20T01:15:21;4.43;;;1.10;;
10216;SDS011;5152;59.674;16.838;2023-07-20T01:17:48;3.83;;;1.30;;
10216;SDS011;5152;59.674;16.838;2023-07-20T01:20:15;1.43;;;1.23;;
10216;SDS011;5152;59.674;16.838;2023-07-20T01:25:53;3.30;;;1.20;;
10216;SDS011;5152;59.674;16.838;2023-07-20T01:31:21;12.30;;;2.10;;
10216;SDS011;5152;59.674;16.838;2023-07-20T01:33:48;0.97;;;0.90;;
10216;SDS011;5152;59.674;16.838;2023-07-20T01:36:17;1.17;;;0.80;;
10216;SDS011;5152;59.674;16.838;2023-07-20T01:38:44;2.23;;;1.20;;
10216;SDS011;5152;59.674;16.838;2023-07-20T01:41:11;2.87;;;1.20;;
10216;SDS011;5152;59.674;16.838;2023-07-20T01:43:38;3.77;;;1.57;;
10216;SDS011;5152;59.674;16.838;2023-07-20T01:46:06;2.97;;;1.57;;
10216;SDS011;5152;59.674;16.838;2023-07-20T01:48:34;3.23;;;1.40;;
10216;SDS011;5152;59.674;16.838;2023-07-20T01:51:01;5.20;;;1.33;;
10216;SDS011;5152;59.674;16.838;2023-07-20T01:53:28;7.57;;;1.33;;
10216;SDS011;5152;59.674;16.838;2023-07-20T01:55:56;8.50;;;1.70;;
10216;SDS011;5152;59.674;16.838;2023-07-20T01:58:23;4.13;;;1.50;;
10216;SDS011;5152;59.674;16.838;2023-07-20T02:00:50;7.30;;;1.83;;
10216;SDS011;5152;59.674;16.838;2023-07-20T02:03:17;6.33;;;1.40;;
10216;SDS011;5152;59.674;16.838;2023-07-20T02:05:48;2.73;;;1.03;;
10216;SDS011;5152;59.674;16.838;2023-07-20T02:08:15;5.47;;;1.57;;
10216;SDS011;5152;59.674;16.838;2023-07-20T02:10:44;9.10;;;1.70;;
10216;SDS011;5152;59.674;16.838;2023-07-20T02:13:11;6.33;;;1.43;;
10216;SDS011;5152;59.674;16.838;2023-07-20T02:15:38;2.00;;;0.90;;
10216;SDS011;5152;59.674;16.838;2023-07-20T02:18:05;2.03;;;1.10;;
10216;SDS011;5152;59.674;16.838;2023-07-20T02:20:32;4.20;;;1.20;;
10216;SDS011;5152;59.674;16.838;2023-07-20T02:23:01;5.50;;;1.20;;
10216;SDS011;5152;59.674;16.838;2023-07-20T02:25:27;1.37;;;0.90;;
10216;SDS011;5152;59.674;16.838;2023-07-20T02:27:55;8.33;;;1.37;;
10216;SDS011;5152;59.674;16.838;2023-07-20T02:30:22;4.10;;;1.47;;
10216;SDS011;5152;59.674;16.838;2023-07-20T02:32:49;1.90;;;1.07;;
10216;SDS011;5152;59.674;16.838;2023-07-20T02:35:16;6.37;;;1.90;;
10216;SDS011;5152;59.674;16.838;2023-07-20T02:37:43;3.43;;;1.37;;
10216;SDS011;5152;59.674;16.838;2023-07-20T02:40:12;5.07;;;1.60;;
10216;SDS011;5152;59.674;16.838;2023-07-20T02:42:38;5.67;;;1.23;;
10216;SDS011;5152;59.674;16.838;2023-07-20T02:45:06;5.53;;;2.07;;
10216;SDS011;5152;59.674;16.838;2023-07-20T02:47:33;7.80;;;1.93;;
10216;SDS011;5152;59.674;16.838;2023-07-20T02:50:00;5.40;;;1.63;;
10216;SDS011;5152;59.674;16.838;2023-07-20T02:52:27;13.03;;;1.90;;
10216;SDS011;5152;59.674;16.838;2023-07-20T02:54:55;3.87;;;1.50;;
10216;SDS011;5152;59.674;16.838;2023-07-20T02:57:23;9.13;;;2.10;;
10216;SDS011;5152;59.674;16.838;2023-07-20T02:59:50;7.77;;;2.07;;
10216;SDS011;5152;59.674;16.838;2023-07-20T03:02:17;10.73;;;2.10;;
10216;SDS011;5152;59.674;16.838;2023-07-20T03:04:44;2.07;;;1.30;;
10216;SDS011;5152;59.674;16.838;2023-07-20T03:07:10;3.93;;;1.80;;
10216;SDS011;5152;59.674;16.838;2023-07-20T03:09:38;8.17;;;2.10;;
10216;SDS011;5152;59.674;16.838;2023-07-20T03:12:05;3.10;;;1.70;;
10216;SDS011;5152;59.674;16.838;2023-07-20T03:14:35;6.60;;;2.10;;
10216;SDS011;5152;59.674;16.838;2023-07-20T03:17:02;6.13;;;1.93;;
10216;SDS011;5152;59.674;16.838;2023-07-20T03:19:29;4.30;;;1.37;;
10216;SDS011;5152;59.674;16.838;2023-07-20T03:21:56;7.00;;;1.73;;
10216;SDS011;5152;59.674;16.838;2023-07-20T03:24:23;5.10;;;1.50;;
10216;SDS011;5152;59.674;16.838;2023-07-20T03:26:50;7.27;;;2.07;;
10216;SDS011;5152;59.674;16.838;2023-07-20T03:29:17;10.10;;;2.30;;
10216;SDS011;5152;59.674;16.838;2023-07-20T03:31:45;7.27;;;2.30;;
10216;SDS011;5152;59.674;16.838;2023-07-20T03:34:13;2.67;;;1.10;;
10216;SDS011;5152;59.674;16.838;2023-07-20T03:36:40;1.33;;;1.07;;
10216;SDS011;5152;59.674;16.838;2023-07-20T03:39:07;11.93;;;2.60;;
10216;SDS011;5152;59.674;16.838;2023-07-20T03:41:33;5.27;;;1.57;;
10216;SDS011;5152;59.674;16.838;2023-07-20T03:44:02;5.20;;;1.53;;
10216;SDS011;5152;59.674;16.838;2023-07-20T03:46:29;5.90;;;1.90;;
10216;SDS011;5152;59.674;16.838;2023-07-20T03:48:58;4.10;;;1.50;;
10216;SDS011;5152;59.674;16.838;2023-07-20T03:51:25;3.13;;;1.73;;
10216;SDS011;5152;59.674;16.838;2023-07-20T03:53:52;3.97;;;1.40;;
10216;SDS011;5152;59.674;16.838;2023-07-20T03:56:19;7.77;;;2.30;;
10216;SDS011;5152;59.674;16.838;2023-07-20T03:58:46;9.00;;;2.27;;
10216;SDS011;5152;59.674;16.838;2023-07-20T04:01:13;1.23;;;1.10;;
10216;SDS011;5152;59.674;16.838;2023-07-20T04:03:41;3.30;;;1.33;;
10216;SDS011;5152;59.674;16.838;2023-07-20T04:06:10;4.40;;;1.77;;
10216;SDS011;5152;59.674;16.838;2023-07-20T04:08:37;4.57;;;1.67;;
10216;SDS011;5152;59.674;16.838;2023-07-20T04:11:04;5.63;;;1.70;;
10216;SDS011;5152;59.674;16.838;2023-07-20T04:13:31;6.97;;;1.70;;
10216;SDS011;5152;59.674;16.838;2023-07-20T04:15:59;9.63;;;2.00;;
10216;SDS011;5152;59.674;16.838;2023-07-20T04:18:27;4.97;;;1.73;;
10216;SDS011;5152;59.674;16.838;2023-07-20T04:20:54;9.87;;;2.13;;
10216;SDS011;5152;59.674;16.838;2023-07-20T04:23:22;8.20;;;1.87;;
10216;SDS011;5152;59.674;16.838;2023-07-20T04:25:49;8.53;;;2.87;;
10216;SDS011;5152;59.674;16.838;2023-07-20T04:28:17;4.80;;;2.20;;
10216;SDS011;5152;59.674;16.838;2023-07-20T04:30:44;7.37;;;1.70;;
10216;SDS011;5152;59.674;16.838;2023-07-20T04:33:10;8.40;;;2.17;;
10216;SDS011;5152;59.674;16.838;2023-07-20T04:35:50;5.40;;;2.00;;
10216;SDS011;5152;59.674;16.838;2023-07-20T04:38:18;3.50;;;1.50;;
10216;SDS011;5152;59.674;16.838;2023-07-20T04:40:46;2.70;;;1.33;;
10216;SDS011;5152;59.674;16.838;2023-07-20T04:43:13;8.10;;;2.30;;
10216;SDS011;5152;59.674;16.838;2023-07-20T04:45:40;2.97;;;1.40;;
10216;SDS011;5152;59.674;16.838;2023-07-20T04:48:09;5.53;;;1.47;;
10216;SDS011;5152;59.674;16.838;2023-07-20T04:50:37;9.83;;;2.43;;
10216;SDS011;5152;59.674;16.838;2023-07-20T04:53:04;7.87;;;1.97;;
10216;SDS011;5152;59.674;16.838;2023-07-20T04:55:31;6.13;;;1.53;;
10216;SDS011;5152;59.674;16.838;2023-07-20T04:58:01;5.20;;;2.20;;
10216;SDS011;5152;59.674;16.838;2023-07-20T05:00:28;5.60;;;2.40;;
10216;SDS011;5152;59.674;16.838;2023-07-20T05:02:55;5.87;;;2.00;;
10216;SDS011;5152;59.674;16.838;2023-07-20T05:05:22;10.10;;;2.37;;
10216;SDS011;5152;59.674;16.838;2023-07-20T05:07:49;6.47;;;2.10;;
10216;SDS011;5152;59.674;16.838;2023-07-20T05:10:17;7.47;;;1.93;;
10216;SDS011;5152;59.674;16.838;2023-07-20T05:12:43;5.37;;;2.17;;
10216;SDS011;5152;59.674;16.838;2023-07-20T05:15:12;4.70;;;1.63;;
10216;SDS011;5152;59.674;16.838;2023-07-20T05:17:39;5.60;;;2.57;;
10216;SDS011;5152;59.674;16.838;2023-07-20T05:20:06;6.90;;;2.30;;
10216;SDS011;5152;59.674;16.838;2023-07-20T05:22:35;5.30;;;2.10;;
10216;SDS011;5152;59.674;16.838;2023-07-20T05:25:05;9.53;;;2.67;;
10216;SDS011;5152;59.674;16.838;2023-07-20T05:27:33;12.17;;;3.00;;
10216;SDS011;5152;59.674;16.838;2023-07-20T05:30:00;3.23;;;1.67;;
10216;SDS011;5152;59.674;16.838;2023-07-20T05:32:29;3.87;;;1.27;;
10216;SDS011;5152;59.674;16.838;2023-07-20T05:34:56;7.53;;;2.10;;
10216;SDS011;5152;59.674;16.838;2023-07-20T05:37:22;7.30;;;2.47;;
10216;SDS011;5152;59.674;16.838;2023-07-20T05:39:49;4.93;;;1.70;;
10216;SDS011;5152;59.674;16.838;2023-07-20T05:42:16;7.03;;;2.30;;
10216;SDS011;5152;59.674;16.838;2023-07-20T05:44:43;8.50;;;2.70;;
10216;SDS011;5152;59.674;16.838;2023-07-20T05:47:10;7.57;;;2.30;;
10216;SDS011;5152;59.674;16.838;2023-07-20T05:49:38;4.37;;;1.80;;
10216;SDS011;5152;59.674;16.838;2023-07-20T05:52:05;7.83;;;2.73;;
10216;SDS011;5152;59.674;16.838;2023-07-20T05:54:32;3.53;;;1.53;;
10216;SDS011;5152;59.674;16.838;2023-07-20T05:56:59;6.50;;;2.30;;
10216;SDS011;5152;59.674;16.838;2023-07-20T05:59:26;5.87;;;2.30;;
10216;SDS011;5152;59.674;16.838;2023-07-20T06:01:54;7.83;;;2.50;;
10216;SDS011;5152;59.674;16.838;2023-07-20T06:04:21;3.43;;;1.47;;
10216;SDS011;5152;59.674;16.838;2023-07-20T06:06:49;9.87;;;2.20;;
10216;SDS011;5152;59.674;16.838;2023-07-20T06:09:16;6.43;;;1.93;;
10216;SDS011;5152;59.674;16.838;2023-07-20T06:11:43;6.97;;;2.17;;
10216;SDS011;5152;59.674;16.838;2023-07-20T06:14:10;11.10;;;2.80;;
10216;SDS011;5152;59.674;16.838;2023-07-20T06:16:37;8.33;;;2.10;;
10216;SDS011;5152;59.674;16.838;2023-07-20T06:19:04;6.27;;;2.17;;
10216;SDS011;5152;59.674;16.838;2023-07-20T06:21:31;4.77;;;1.97;;
10216;SDS011;5152;59.674;16.838;2023-07-20T06:23:59;10.03;;;2.53;;
10216;SDS011;5152;59.674;16.838;2023-07-20T06:26:26;8.30;;;2.47;;
10216;SDS011;5152;59.674;16.838;2023-07-20T06:28:53;4.60;;;2.20;;
10216;SDS011;5152;59.674;16.838;2023-07-20T06:31:20;4.23;;;1.73;;
10216;SDS011;5152;59.674;16.838;2023-07-20T06:33:47;3.50;;;1.80;;
10216;SDS011;5152;59.674;16.838;2023-07-20T06:36:15;6.00;;;1.80;;
10216;SDS011;5152;59.674;16.838;2023-07-20T06:38:44;8.50;;;2.30;;
10216;SDS011;5152;59.674;16.838;2023-07-20T06:41:12;5.83;;;1.97;;
10216;SDS011;5152;59.674;16.838;2023-07-20T06:43:39;4.87;;;1.80;;
10216;SDS011;5152;59.674;16.838;2023-07-20T06:46:06;6.83;;;2.10;;
10216;SDS011;5152;59.674;16.838;2023-07-20T06:48:32;4.53;;;1.60;;
10216;SDS011;5152;59.674;16.838;2023-07-20T06:50:59;2.83;;;1.80;;
10216;SDS011;5152;59.674;16.838;2023-07-20T06:53:26;10.13;;;2.37;;
10216;SDS011;5152;59.674;16.838;2023-07-20T06:55:53;3.33;;;1.50;;
10216;SDS011;5152;59.674;16.838;2023-07-20T06:58:23;2.60;;;1.30;;
10216;SDS011;5152;59.674;16.838;2023-07-20T07:00:50;7.10;;;2.27;;
10216;SDS011;5152;59.674;16.838;2023-07-20T07:03:17;7.93;;;2.30;;
10216;SDS011;5152;59.674;16.838;2023-07-20T07:05:44;7.30;;;2.60;;
10216;SDS011;5152;59.674;16.838;2023-07-20T07:08:11;4.27;;;1.97;;
10216;SDS011;5152;59.674;16.838;2023-07-20T07:10:39;5.03;;;1.90;;
10216;SDS011;5152;59.674;16.838;2023-07-20T07:13:06;6.13;;;2.70;;
10216;SDS011;5152;59.674;16.838;2023-07-20T07:15:34;10.80;;;2.47;;
10216;SDS011;5152;59.674;16.838;2023-07-20T07:18:01;7.30;;;2.60;;
10216;SDS011;5152;59.674;16.838;2023-07-20T07:20:28;5.73;;;2.37;;
10216;SDS011;5152;59.674;16.838;2023-07-20T07:22:55;3.63;;;1.80;;
10216;SDS011;5152;59.674;16.838;2023-07-20T07:25:22;7.57;;;2.43;;
10216;SDS011;5152;59.674;16.838;2023-07-20T07:27:49;4.00;;;1.90;;
10216;SDS011;5152;59.674;16.838;2023-07-20T07:30:17;5.00;;;2.00;;
10216;SDS011;5152;59.674;16.838;2023-07-20T07:32:46;6.93;;;2.40;;
10216;SDS011;5152;59.674;16.838;2023-07-20T07:35:13;9.73;;;2.60;;
10216;SDS011;5152;59.674;16.838;2023-07-20T07:37:40;9.23;;;2.73;;
10216;SDS011;5152;59.674;16.838;2023-07-20T07:40:07;6.83;;;2.37;;
10216;SDS011;5152;59.674;16.838;2023-07-20T07:42:34;6.77;;;2.60;;
10216;SDS011;5152;59.674;16.838;2023-07-20T07:45:01;7.13;;;2.70;;
10216;SDS011;5152;59.674;16.838;2023-07-20T07:47:29;3.50;;;1.63;;
10216;SDS011;5152;59.674;16.838;2023-07-20T07:49:57;3.97;;;1.87;;
10216;SDS011;5152;59.674;16.838;2023-07-20T07:52:24;5.80;;;2.20;;
10216;SDS011;5152;59.674;16.838;2023-07-20T07:54:52;7.93;;;2.20;;
10216;SDS011;5152;59.674;16.838;2023-07-20T07:57:19;7.00;;;2.03;;
10216;SDS011;5152;59.674;16.838;2023-07-20T07:59:46;8.20;;;2.73;;
10216;SDS011;5152;59.674;16.838;2023-07-20T08:02:13;3.90;;;2.00;;
10216;SDS011;5152;59.674;16.838;2023-07-20T08:04:40;6.70;;;2.07;;
10216;SDS011;5152;59.674;16.838;2023-07-20T08:07:09;3.17;;;2.10;;
10216;SDS011;5152;59.674;16.838;2023-07-20T08:09:36;6.90;;;2.00;;
10216;SDS011;5152;59.674;16.838;2023-07-20T08:12:03;6.40;;;2.17;;
10216;SDS011;5152;59.674;16.838;2023-07-20T08:14:31;4.83;;;2.40;;
10216;SDS011;5152;59.674;16.838;2023-07-20T08:16:58;5.97;;;2.20;;
10216;SDS011;5152;59.674;16.838;2023-07-20T08:19:25;3.10;;;1.67;;
10216;SDS011;5152;59.674;16.838;2023-07-20T08:21:52;4.40;;;2.30;;
10216;SDS011;5152;59.674;16.838;2023-07-20T08:24:20;7.87;;;2.43;;
10216;SDS011;5152;59.674;16.838;2023-07-20T08:26:47;3.00;;;1.60;;
10216;SDS011;5152;59.674;16.838;2023-07-20T08:29:14;2.80;;;1.87;;
10216;SDS011;5152;59.674;16.838;2023-07-20T08:31:41;5.73;;;2.23;;
10216;SDS011;5152;59.674;16.838;2023-07-20T08:34:07;17.80;;;3.00;;
10216;SDS011;5152;59.674;16.838;2023-07-20T08:36:34;4.77;;;2.73;;
10216;SDS011;5152;59.674;16.838;2023-07-20T08:39:01;8.10;;;3.00;;
10216;SDS011;5152;59.674;16.838;2023-07-20T08:41:30;5.33;;;2.10;;
10216;SDS011;5152;59.674;16.838;2023-07-20T08:43:57;7.10;;;2.00;;
10216;SDS011;5152;59.674;16.838;2023-07-20T08:46:27;8.77;;;2.20;;
10216;SDS011;5152;59.674;16.838;2023-07-20T08:48:55;5.13;;;2.30;;
10216;SDS011;5152;59.674;16.838;2023-07-20T08:51:23;4.53;;;1.90;;
10216;SDS011;5152;59.674;16.838;2023-07-20T08:53:50;4.63;;;2.23;;
10216;SDS011;5152;59.674;16.838;2023-07-20T08:56:17;7.63;;;2.27;;
10216;SDS011;5152;59.674;16.838;2023-07-20T08:58:49;7.77;;;2.37;;
10216;SDS011;5152;59.674;16.838;2023-07-20T09:01:16;6.93;;;1.70;;
10216;SDS011;5152;59.674;16.838;2023-07-20T09:03:45;5.40;;;2.20;;
10216;SDS011;5152;59.674;16.838;2023-07-20T09:06:12;3.13;;;1.70;;
10216;SDS011;5152;59.674;16.838;2023-07-20T09:08:39;4.10;;;2.13;;
10216;SDS011;5152;59.674;16.838;2023-07-20T09:11:06;2.97;;;1.43;;
10216;SDS011;5152;59.674;16.838;2023-07-20T09:13:34;2.17;;;1.13;;
10216;SDS011;5152;59.674;16.838;2023-07-20T09:16:02;5.23;;;1.20;;
10216;SDS011;5152;59.674;16.838;2023-07-20T09:18:30;6.23;;;1.70;;
10216;SDS011;5152;59.674;16.838;2023-07-20T09:21:00;2.40;;;1.67;;
10216;SDS011;5152;59.674;16.838;2023-07-20T09:23:32;3.63;;;1.60;;
10216;SDS011;5152;59.674;16.838;2023-07-20T09:25:59;2.03;;;1.70;;
10216;SDS011;5152;59.674;16.838;2023-07-20T09:28:26;3.00;;;1.40;;
10216;SDS011;5152;59.674;16.838;2023-07-20T09:30:54;2.73;;;1.70;;
10216;SDS011;5152;59.674;16.838;2023-07-20T09:33:27;2.00;;;1.30;;
10216;SDS011;5152;59.674;16.838;2023-07-20T09:35:53;2.90;;;1.57;;
10216;SDS011;5152;59.674;16.838;2023-07-20T09:38:20;2.93;;;1.30;;
10216;SDS011;5152;59.674;16.838;2023-07-20T09:40:47;1.20;;;1.10;;
10216;SDS011;5152;59.674;16.838;2023-07-20T09:43:15;1.23;;;1.13;;
10216;SDS011;5152;59.674;16.838;2023-07-20T09:45:43;5.10;;;1.30;;
10216;SDS011;5152;59.674;16.838;2023-07-20T09:48:10;1.83;;;0.90;;
10216;SDS011;5152;59.674;16.838;2023-07-20T09:50:49;2.87;;;1.20;;
10216;SDS011;5152;59.674;16.838;2023-07-20T09:53:17;2.43;;;1.17;;
10216;SDS011;5152;59.674;16.838;2023-07-20T09:55:46;2.17;;;1.10;;
10216;SDS011;5152;59.674;16.838;2023-07-20T09:58:13;3.63;;;1.17;;
10216;SDS011;5152;59.674;16.838;2023-07-20T10:00:41;2.57;;;1.20;;
10216;SDS011;5152;59.674;16.838;2023-07-20T10:03:13;2.10;;;1.37;;
10216;SDS011;5152;59.674;16.838;2023-07-20T10:05:45;2.57;;;1.20;;
10216;SDS011;5152;59.674;16.838;2023-07-20T10:08:15;3.27;;;1.40;;
10216;SDS011;5152;59.674;16.838;2023-07-20T10:10:43;2.57;;;1.20;;
10216;SDS011;5152;59.674;16.838;2023-07-20T10:13:13;2.53;;;1.00;;
10216;SDS011;5152;59.674;16.838;2023-07-20T10:15:43;3.03;;;1.30;;
10216;SDS011;5152;59.674;16.838;2023-07-20T10:18:14;9.00;;;1.67;;
10216;SDS011;5152;59.674;16.838;2023-07-20T10:20:45;1.73;;;1.33;;
10216;SDS011;5152;59.674;16.838;2023-07-20T10:23:17;4.77;;;1.63;;
10216;SDS011;5152;59.674;16.838;2023-07-20T10:25:43;3.17;;;1.27;;
10216;SDS011;5152;59.674;16.838;2023-07-20T10:28:11;1.13;;;1.00;;
10216;SDS011;5152;59.674;16.838;2023-07-20T10:30:37;3.30;;;1.30;;
10216;SDS011;5152;59.674;16.838;2023-07-20T10:33:05;4.03;;;1.20;;
10216;SDS011;5152;59.674;16.838;2023-07-20T10:35:50;1.20;;;1.00;;
10216;SDS011;5152;59.674;16.838;2023-07-20T10:38:18;4.50;;;1.13;;
10216;SDS011;5152;59.674;16.838;2023-07-20T10:40:53;1.37;;;1.00;;
10216;SDS011;5152;59.674;16.838;2023-07-20T10:43:20;11.03;;;1.00;;
10216;SDS011;5152;59.674;16.838;2023-07-20T10:45:48;3.53;;;1.00;;
10216;SDS011;5152;59.674;16.838;2023-07-20T10:48:16;0.93;;;0.83;;
10216;SDS011;5152;59.674;16.838;2023-07-20T10:50:45;5.63;;;0.90;;
10216;SDS011;5152;59.674;16.838;2023-07-20T10:53:17;1.03;;;0.80;;
10216;SDS011;5152;59.674;16.838;2023-07-20T10:55:44;1.70;;;0.90;;
10216;SDS011;5152;59.674;16.838;2023-07-20T10:58:15;1.20;;;0.63;;
10216;SDS011;5152;59.674;16.838;2023-07-20T11:00:58;5.50;;;1.50;;
10216;SDS011;5152;59.674;16.838;2023-07-20T11:03:26;4.63;;;1.10;;
10216;SDS011;5152;59.674;16.838;2023-07-20T11:05:54;0.83;;;0.70;;
10216;SDS011;5152;59.674;16.838;2023-07-20T11:11:23;2.60;;;1.05;;
10216;SDS011;5152;59.674;16.838;2023-07-20T11:13:55;0.97;;;0.77;;
10216;SDS011;5152;59.674;16.838;2023-07-20T11:16:39;0.80;;;0.68;;
10216;SDS011;5152;59.674;16.838;2023-07-20T11:19:13;2.67;;;1.17;;
10216;SDS011;5152;59.674;16.838;2023-07-20T11:21:42;1.23;;;1.00;;
10216;SDS011;5152;59.674;16.838;2023-07-20T11:24:11;1.45;;;0.98;;
10216;SDS011;5152;59.674;16.838;2023-07-20T11:26:45;1.00;;;0.90;;
10216;SDS011;5152;59.674;16.838;2023-07-20T11:29:13;1.50;;;1.10;;
10216;SDS011;5152;59.674;16.838;2023-07-20T11:31:42;1.70;;;0.73;;
10216;SDS011;5152;59.674;16.838;2023-07-20T11:34:10;1.77;;;0.93;;
10216;SDS011;5152;59.674;16.838;2023-07-20T11:36:38;1.00;;;0.87;;
10216;SDS011;5152;59.674;16.838;2023-07-20T11:39:06;1.93;;;1.13;;
10216;SDS011;5152;59.674;16.838;2023-07-20T11:41:35;2.00;;;0.87;;
10216;SDS011;5152;59.674;16.838;2023-07-20T11:44:03;1.10;;;0.77;;
10216;SDS011;5152;59.674;16.838;2023-07-20T11:46:31;0.87;;;0.70;;
10216;SDS011;5152;59.674;16.838;2023-07-20T11:48:58;1.03;;;0.80;;
10216;SDS011;5152;59.674;16.838;2023-07-20T11:51:26;0.50;;;0.50;;
10216;SDS011;5152;59.674;16.838;2023-07-20T11:53:53;2.33;;;0.70;;
10216;SDS011;5152;59.674;16.838;2023-07-20T11:56:20;0.57;;;0.57;;
10216;SDS011;5152;59.674;16.838;2023-07-20T11:58:53;0.63;;;0.50;;
10216;SDS011;5152;59.674;16.838;2023-07-20T12:01:21;2.37;;;0.50;;
10216;SDS011;5152;59.674;16.838;2023-07-20T12:03:49;1.03;;;0.40;;
10216;SDS011;5152;59.674;16.838;2023-07-20T12:06:16;0.70;;;0.50;;
10216;SDS011;5152;59.674;16.838;2023-07-20T12:08:44;1.13;;;0.60;;
10216;SDS011;5152;59.674;16.838;2023-07-20T12:11:10;0.83;;;0.60;;
10216;SDS011;5152;59.674;16.838;2023-07-20T12:13:38;2.90;;;0.67;;
10216;SDS011;5152;59.674;16.838;2023-07-20T12:16:10;0.40;;;0.40;;
10216;SDS011;5152;59.674;16.838;2023-07-20T12:18:38;0.83;;;0.60;;
10216;SDS011;5152;59.674;16.838;2023-07-20T12:21:05;0.43;;;0.40;;
10216;SDS011;5152;59.674;16.838;2023-07-20T12:23:34;0.85;;;0.55;;
10216;SDS011;5152;59.674;16.838;2023-07-20T12:26:02;0.50;;;0.50;;
10216;SDS011;5152;59.674;16.838;2023-07-20T12:28:30;0.67;;;0.40;;
10216;SDS011;5152;59.674;16.838;2023-07-20T12:30:58;2.72;;;0.50;;
10216;SDS011;5152;59.674;16.838;2023-07-20T12:33:26;0.50;;;0.30;;
10216;SDS011;5152;59.674;16.838;2023-07-20T12:35:52;2.87;;;0.60;;
10216;SDS011;5152;59.674;16.838;2023-07-20T12:38:21;1.38;;;0.65;;
10216;SDS011;5152;59.674;16.838;2023-07-20T12:40:49;1.02;;;0.70;;
10216;SDS011;5152;59.674;16.838;2023-07-20T12:43:16;2.60;;;0.77;;
10216;SDS011;5152;59.674;16.838;2023-07-20T12:45:43;1.83;;;0.65;;
10216;SDS011;5152;59.674;16.838;2023-07-20T12:48:09;0.90;;;0.70;;
10216;SDS011;5152;59.674;16.838;2023-07-20T12:50:37;1.88;;;1.10;;
10216;SDS011;5152;59.674;16.838;2023-07-20T12:53:04;1.13;;;0.73;;
10216;SDS011;5152;59.674;16.838;2023-07-20T12:55:32;0.70;;;0.70;;
10216;SDS011;5152;59.674;16.838;2023-07-20T12:57:58;1.85;;;0.70;;
10216;SDS011;5152;59.674;16.838;2023-07-20T13:00:25;1.23;;;0.70;;
10216;SDS011;5152;59.674;16.838;2023-07-20T13:02:52;1.95;;;0.80;;
10216;SDS011;5152;59.674;16.838;2023-07-20T13:05:19;0.77;;;0.68;;
10216;SDS011;5152;59.674;16.838;2023-07-20T13:07:47;1.00;;;0.90;;
10216;SDS011;5152;59.674;16.838;2023-07-20T13:10:14;1.27;;;0.60;;
10216;SDS011;5152;59.674;16.838;2023-07-20T13:12:41;1.05;;;0.73;;
10216;SDS011;5152;59.674;16.838;2023-07-20T13:15:08;1.20;;;0.70;;
10216;SDS011;5152;59.674;16.838;2023-07-20T13:17:36;0.82;;;0.77;;
10216;SDS011;5152;59.674;16.838;2023-07-20T13:20:05;0.70;;;0.60;;
10216;SDS011;5152;59.674;16.838;2023-07-20T13:22:35;1.70;;;0.60;;
10216;SDS011;5152;59.674;16.838;2023-07-20T13:25:03;1.65;;;0.65;;
10216;SDS011;5152;59.674;16.838;2023-07-20T13:27:31;2.08;;;0.65;;
10216;SDS011;5152;59.674;16.838;2023-07-20T13:29:58;1.60;;;0.88;;
10216;SDS011;5152;59.674;16.838;2023-07-20T13:32:26;1.38;;;0.93;;
10216;SDS011;5152;59.674;16.838;2023-07-20T13:34:53;1.38;;;0.60;;
10216;SDS011;5152;59.674;16.838;2023-07-20T13:37:20;1.27;;;0.70;;
10216;SDS011;5152;59.674;16.838;2023-07-20T13:39:47;1.20;;;0.73;;
10216;SDS011;5152;59.674;16.838;2023-07-20T13:42:15;1.40;;;0.60;;
10216;SDS011;5152;59.674;16.838;2023-07-20T13:44:42;0.73;;;0.73;;
10216;SDS011;5152;59.674;16.838;2023-07-20T13:47:09;1.17;;;0.52;;
10216;SDS011;5152;59.674;16.838;2023-07-20T13:49:36;0.70;;;0.60;;
10216;SDS011;5152;59.674;16.838;2023-07-20T13:52:03;5.07;;;1.08;;
10216;SDS011;5152;59.674;16.838;2023-07-20T13:54:31;3.38;;;1.02;;
10216;SDS011;5152;59.674;16.838;2023-07-20T13:56:58;0.80;;;0.60;;
10216;SDS011;5152;59.674;16.838;2023-07-20T13:59:26;4.00;;;1.00;;
10216;SDS011;5152;59.674;16.838;2023-07-20T14:01:53;1.90;;;0.85;;
10216;SDS011;5152;59.674;16.838;2023-07-20T14:04:20;1.48;;;0.68;;
10216;SDS011;5152;59.674;16.838;2023-07-20T14:06:46;3.05;;;0.63;;
10216;SDS011;5152;59.674;16.838;2023-07-20T14:09:13;1.65;;;0.60;;
10216;SDS011;5152;59.674;16.838;2023-07-20T14:11:40;3.15;;;0.68;;
10216;SDS011;5152;59.674;16.838;2023-07-20T14:14:07;1.33;;;0.70;;
10216;SDS011;5152;59.674;16.838;2023-07-20T14:16:35;2.22;;;0.70;;
10216;SDS011;5152;59.674;16.838;2023-07-20T14:19:02;1.67;;;0.85;;
10216;SDS011;5152;59.674;16.838;2023-07-20T14:21:30;2.63;;;1.00;;
10216;SDS011;5152;59.674;16.838;2023-07-20T14:23:57;3.43;;;0.97;;
10216;SDS011;5152;59.674;16.838;2023-07-20T14:26:24;1.13;;;0.60;;
10216;SDS011;5152;59.674;16.838;2023-07-20T14:28:50;6.63;;;1.20;;
10216;SDS011;5152;59.674;16.838;2023-07-20T14:31:17;3.90;;;1.53;;
10216;SDS011;5152;59.674;16.838;2023-07-20T14:33:46;0.83;;;0.47;;
10216;SDS011;5152;59.674;16.838;2023-07-20T14:36:13;4.07;;;0.93;;
10216;SDS011;5152;59.674;16.838;2023-07-20T14:38:40;1.23;;;0.60;;
10216;SDS011;5152;59.674;16.838;2023-07-20T14:41:08;2.73;;;0.50;;
10216;SDS011;5152;59.674;16.838;2023-07-20T14:43:35;0.97;;;0.80;;
10216;SDS011;5152;59.674;16.838;2023-07-20T14:46:01;2.70;;;1.27;;
10216;SDS011;5152;59.674;16.838;2023-07-20T14:48:28;1.23;;;0.70;;
10216;SDS011;5152;59.674;16.838;2023-07-20T14:50:56;0.50;;;0.50;;
10216;SDS011;5152;59.674;16.838;2023-07-20T14:53:23;3.33;;;0.67;;
10216;SDS011;5152;59.674;16.838;2023-07-20T14:55:57;3.53;;;0.60;;
10216;SDS011;5152;59.674;16.838;2023-07-20T14:58:25;1.90;;;0.53;;
10216;SDS011;5152;59.674;16.838;2023-07-20T15:00:52;1.70;;;0.73;;
10216;SDS011;5152;59.674;16.838;2023-07-20T15:03:18;1.20;;;0.70;;
10216;SDS011;5152;59.674;16.838;2023-07-20T15:05:45;2.57;;;1.17;;
10216;SDS011;5152;59.674;16.838;2023-07-20T15:08:14;0.93;;;0.40;;